Time;durP1;ratioP1;P1;durP2;ratioP2;P2;SDS_P1;SDS_P2;PMS_P1;PMS_P2;Temp;Humidity;BMP_temperature;BMP_pressure;BME280_temperature;BME280_humidity;BME280_pressure;Samples;Min_cycle;Max_cycle;Signal;HPM_P1;HPM_P2
2023/10/19 00:00:48;;;;;;;3.45;1.13;;;;;;;;;;4974005;28;20046;-67
2023/10/19 00:03:15;;;;;;;4.82;0.95;;;;;;;;;;4973895;28;20124;-66
2023/10/19 00:05:42;;;;;;;3.38;1.30;;;;;;;;;;4974022;28;20050;-66
2023/10/19 00:08:15;;;;;;;4.45;1.20;;;;;;;;;;4973943;28;20039;-67
2023/10/19 00:10:43;;;;;;;2.72;1.17;;;;;;;;;;4973972;28;20049;-66
2023/10/19 00:13:11;;;;;;;3.47;1.25;;;;;;;;;;4974000;28;20027;-67
2023/10/19 00:15:51;;;;;;;3.55;1.20;;;;;;;;;;4973564;28;20089;-66
2023/10/19 00:23:18;;;;;;;1.65;1.02;;;;;;;;;;4967753;28;20042;-67
2023/10/19 00:25:51;;;;;;;1.17;1.10;;;;;;;;;;5034308;28;20028;-67
2023/10/19 00:28:18;;;;;;;3.90;1.30;;;;;;;;;;5042481;28;20043;-66
2023/10/19 00:30:45;;;;;;;2.80;1.10;;;;;;;;;;5054233;28;20027;-67
2023/10/19 00:33:19;;;;;;;3.30;1.20;;;;;;;;;;5054175;28;20025;-67
2023/10/19 00:41:11;;;;;;;4.15;1.15;;;;;;;;;;5053924;28;20017;-67
2023/10/19 00:43:45;;;;;;;1.75;0.93;;;;;;;;;;5054043;28;20021;-67
2023/10/19 00:46:20;;;;;;;4.70;1.10;;;;;;;;;;5053855;28;20021;-66
2023/10/19 00:48:57;;;;;;;7.45;1.20;;;;;;;;;;5053912;28;20504;-66
2023/10/19 00:54:26;;;;;;;7.00;1.38;;;;;;;;;;5052650;28;20029;-66
2023/10/19 00:56:58;;;;;;;7.90;1.20;;;;;;;;;;5053505;28;20055;-66
2023/10/19 00:59:29;;;;;;;4.30;1.40;;;;;;;;;;5053659;28;20094;-66
2023/10/19 01:02:16;;;;;;;3.95;1.10;;;;;;;;;;5054029;28;20018;-67
2023/10/19 01:04:42;;;;;;;5.63;1.30;;;;;;;;;;5053465;28;20098;-66
2023/10/19 01:07:22;;;;;;;5.80;1.40;;;;;;;;;;5053332;28;20029;-66
2023/10/19 01:09:48;;;;;;;4.32;1.35;;;;;;;;;;5053478;28;20503;-67
2023/10/19 01:15:31;;;;;;;5.13;1.35;;;;;;;;;;5053406;28;20031;-67
2023/10/19 01:17:56;;;;;;;3.47;1.40;;;;;;;;;;5052975;28;20037;-66
2023/10/19 01:33:55;;;;;;;2.13;1.35;;;;;;;;;;5053095;28;20289;-66
2023/10/19 01:38:49;;;;;;;3.30;1.80;;;;;;;;;;5052915;28;20041;-66
2023/10/19 01:41:18;;;;;;;2.42;1.50;;;;;;;;;;5052825;28;20074;-66
2023/10/19 01:43:46;;;;;;;4.53;1.70;;;;;;;;;;5052921;28;20021;-66
2023/10/19 01:46:13;;;;;;;4.00;1.85;;;;;;;;;;5052855;28;20021;-66
2023/10/19 01:48:40;;;;;;;2.83;1.70;;;;;;;;;;5053088;28;20025;-66
2023/10/19 01:51:10;;;;;;;5.07;1.77;;;;;;;;;;5051497;28;20028;-66
2023/10/19 01:53:39;;;;;;;1.90;1.42;;;;;;;;;;5052735;28;20013;-66
2023/10/19 01:56:09;;;;;;;2.55;1.92;;;;;;;;;;5052717;28;20033;-66
2023/10/19 01:58:39;;;;;;;2.58;1.80;;;;;;;;;;5052524;28;20040;-66
2023/10/19 02:03:42;;;;;;;4.95;1.75;;;;;;;;;;5052696;28;20024;-66
2023/10/19 02:06:26;;;;;;;4.10;2.08;;;;;;;;;;5052327;28;20025;-66
2023/10/19 02:08:56;;;;;;;5.00;2.05;;;;;;;;;;5052559;28;20385;-66
2023/10/19 02:11:23;;;;;;;2.17;1.90;;;;;;;;;;5052518;28;20025;-66
2023/10/19 02:13:50;;;;;;;7.72;2.35;;;;;;;;;;5052524;28;20674;-66
2023/10/19 02:16:21;;;;;;;6.72;2.13;;;;;;;;;;5052399;28;20025;-67
2023/10/19 02:18:47;;;;;;;2.28;2.00;;;;;;;;;;5052175;28;20478;-66
2023/10/19 02:21:14;;;;;;;4.63;2.10;;;;;;;;;;5052687;28;20036;-66
2023/10/19 02:23:43;;;;;;;3.20;2.10;;;;;;;;;;5052761;28;20024;-66
2023/10/19 02:26:13;;;;;;;3.80;2.30;;;;;;;;;;5052313;28;20031;-66
2023/10/19 02:28:40;;;;;;;6.43;2.10;;;;;;;;;;5052247;28;20031;-66
2023/10/19 02:31:18;;;;;;;6.07;2.33;;;;;;;;;;5052794;28;20024;-66
2023/10/19 02:34:00;;;;;;;3.92;1.92;;;;;;;;;;5052022;28;20017;-66
2023/10/19 02:36:31;;;;;;;2.70;1.95;;;;;;;;;;5052254;28;20021;-66
2023/10/19 02:39:07;;;;;;;4.70;2.13;;;;;;;;;;5052299;28;20051;-66
2023/10/19 02:41:35;;;;;;;2.78;2.15;;;;;;;;;;5052348;28;20411;-67
2023/10/19 02:44:05;;;;;;;7.38;2.40;;;;;;;;;;5056327;28;20398;-66
2023/10/19 02:46:34;;;;;;;2.55;2.00;;;;;;;;;;5055043;28;20485;-67
2023/10/19 02:49:13;;;;;;;5.90;2.38;;;;;;;;;;5056084;28;20031;-66
2023/10/19 02:51:40;;;;;;;3.05;2.42;;;;;;;;;;5056034;28;20080;-66
2023/10/19 02:54:07;;;;;;;5.00;2.28;;;;;;;;;;5056193;28;20033;-66
2023/10/19 02:56:40;;;;;;;5.63;1.98;;;;;;;;;;5055882;28;20013;-66
2023/10/19 02:59:07;;;;;;;5.90;2.30;;;;;;;;;;5055903;28;20040;-67
2023/10/19 03:01:34;;;;;;;2.75;2.40;;;;;;;;;;5056414;28;20021;-66
2023/10/19 03:04:01;;;;;;;2.70;2.38;;;;;;;;;;5055266;28;20029;-66
2023/10/19 03:06:32;;;;;;;5.70;2.50;;;;;;;;;;5055852;28;20025;-66
2023/10/19 03:08:58;;;;;;;;;;;;;;;;;;5056226;28;20397;-66
2023/10/19 03:11:25;;;;;;;5.05;2.33;;;;;;;;;;5056075;28;19904;-66
2023/10/19 03:13:51;;;;;;;2.72;2.38;;;;;;;;;;5055702;28;20388;-66
2023/10/19 03:16:20;;;;;;;4.95;2.30;;;;;;;;;;5055468;28;20065;-66
2023/10/19 03:18:46;;;;;;;10.23;2.33;;;;;;;;;;5055218;28;20451;-66
2023/10/19 03:21:12;;;;;;;4.18;2.03;;;;;;;;;;5055529;28;20027;-66
2023/10/19 03:23:40;;;;;;;9.65;2.20;;;;;;;;;;5055460;28;20025;-66
2023/10/19 03:26:27;;;;;;;6.82;2.63;;;;;;;;;;5055489;28;20496;-66
2023/10/19 03:29:01;;;;;;;6.25;2.38;;;;;;;;;;5055505;28;20021;-66
2023/10/19 03:31:27;;;;;;;4.32;2.35;;;;;;;;;;5055061;28;20478;-66
2023/10/19 03:33:54;;;;;;;4.55;2.42;;;;;;;;;;5055252;28;20032;-66
2023/10/19 03:36:23;;;;;;;4.25;2.33;;;;;;;;;;5055480;28;20032;-66
2023/10/19 03:38:51;;;;;;;2.47;2.25;;;;;;;;;;5055169;28;20037;-66
2023/10/19 03:41:21;;;;;;;5.43;2.20;;;;;;;;;;5055222;28;20029;-66
2023/10/19 03:43:48;;;;;;;3.65;2.50;;;;;;;;;;5055628;28;20032;-66
2023/10/19 03:46:28;;;;;;;4.32;2.35;;;;;;;;;;5054701;28;20033;-66
2023/10/19 03:48:58;;;;;;;5.35;2.35;;;;;;;;;;5055016;28;20040;-67
2023/10/19 03:51:26;;;;;;;8.43;2.45;;;;;;;;;;5055076;28;20041;-66
2023/10/19 03:54:01;;;;;;;6.50;2.30;;;;;;;;;;5054352;28;20016;-65
2023/10/19 03:56:27;;;;;;;4.60;2.30;;;;;;;;;;5054829;28;20025;-66
2023/10/19 03:58:53;;;;;;;4.43;2.30;;;;;;;;;;5054627;28;20041;-66
2023/10/19 04:01:20;;;;;;;2.78;2.10;;;;;;;;;;5054733;28;20021;-67
2023/10/19 04:03:47;;;;;;;2.42;2.15;;;;;;;;;;5053518;28;20389;-66
2023/10/19 04:06:16;;;;;;;7.35;2.40;;;;;;;;;;5054583;28;20024;-66
2023/10/19 04:08:42;;;;;;;4.35;2.60;;;;;;;;;;5054968;28;20029;-66
2023/10/19 04:11:18;;;;;;;4.60;2.72;;;;;;;;;;5054947;28;20020;-66
2023/10/19 04:13:45;;;;;;;6.00;2.30;;;;;;;;;;5054835;28;20138;-66
2023/10/19 04:16:12;;;;;;;7.47;2.38;;;;;;;;;;5054374;28;20027;-66
2023/10/19 04:18:43;;;;;;;3.88;2.60;;;;;;;;;;5054572;28;20051;-66
2023/10/19 04:21:10;;;;;;;2.92;2.33;;;;;;;;;;5055017;28;20029;-66
2023/10/19 04:23:36;;;;;;;4.72;3.00;;;;;;;;;;5053496;28;20039;-66
2023/10/19 04:26:12;;;;;;;10.63;4.00;;;;;;;;;;5054642;28;20078;-66
2023/10/19 04:28:49;;;;;;;7.10;3.85;;;;;;;;;;5054164;28;20033;-66
2023/10/19 04:31:19;;;;;;;4.63;3.63;;;;;;;;;;5054216;28;20074;-66
2023/10/19 04:33:46;;;;;;;4.35;3.40;;;;;;;;;;5054168;28;20385;-66
2023/10/19 04:36:13;;;;;;;3.15;2.53;;;;;;;;;;5054441;28;20027;-66
2023/10/19 04:38:40;;;;;;;4.50;2.40;;;;;;;;;;5053134;28;20041;-67
2023/10/19 04:41:07;;;;;;;3.00;2.30;;;;;;;;;;5054046;28;20196;-66
2023/10/19 04:43:37;;;;;;;3.72;2.20;;;;;;;;;;5053709;28;20031;-66
2023/10/19 04:46:13;;;;;;;1.90;1.70;;;;;;;;;;5053909;28;20031;-66
2023/10/19 04:48:40;;;;;;;2.38;1.90;;;;;;;;;;5053958;28;20027;-66
2023/10/19 04:51:07;;;;;;;1.80;1.70;;;;;;;;;;5054007;28;20024;-65
2023/10/19 04:53:33;;;;;;;9.10;1.83;;;;;;;;;;5053930;28;20051;-66
2023/10/19 04:56:00;;;;;;;3.45;1.30;;;;;;;;;;5053700;28;20037;-67
2023/10/19 04:58:28;;;;;;;2.35;1.20;;;;;;;;;;5053165;28;20049;-66
2023/10/19 05:00:55;;;;;;;3.40;1.10;;;;;;;;;;5053664;28;20482;-66
2023/10/19 05:03:21;;;;;;;1.88;1.17;;;;;;;;;;5053443;28;20021;-66
2023/10/19 05:05:47;;;;;;;5.00;1.30;;;;;;;;;;5053525;28;20477;-66
2023/10/19 05:08:13;;;;;;;3.65;1.45;;;;;;;;;;5053528;28;20024;-66
2023/10/19 05:10:41;;;;;;;7.57;1.85;;;;;;;;;;5053473;28;20025;-66
2023/10/19 05:13:08;;;;;;;6.90;1.60;;;;;;;;;;5053183;28;20033;-67
2023/10/19 05:15:34;;;;;;;2.13;1.65;;;;;;;;;;5053278;28;20021;-66
2023/10/19 05:18:01;;;;;;;2.67;1.90;;;;;;;;;;5053249;28;20470;-66
2023/10/19 05:20:27;;;;;;;2.67;2.00;;;;;;;;;;5053374;28;20051;-66
2023/10/19 05:22:54;;;;;;;3.22;2.00;;;;;;;;;;5053758;28;20029;-66
2023/10/19 05:25:20;;;;;;;3.50;1.92;;;;;;;;;;5053180;28;20025;-66
2023/10/19 05:27:46;;;;;;;3.70;2.22;;;;;;;;;;5052731;28;20375;-66
2023/10/19 05:30:13;;;;;;;6.97;2.33;;;;;;;;;;5052998;28;20512;-66
2023/10/19 05:32:39;;;;;;;5.32;2.40;;;;;;;;;;5053105;28;20470;-66
2023/10/19 05:35:06;;;;;;;6.10;1.90;;;;;;;;;;5053439;28;20035;-66
2023/10/19 05:37:32;;;;;;;4.43;2.00;;;;;;;;;;5053123;28;20028;-66
2023/10/19 05:39:58;;;;;;;3.08;1.80;;;;;;;;;;5052860;28;20039;-66
2023/10/19 05:42:25;;;;;;;3.35;1.60;;;;;;;;;;5052602;28;20384;-67
2023/10/19 05:44:52;;;;;;;6.35;1.90;;;;;;;;;;5053142;28;20021;-67
2023/10/19 05:47:19;;;;;;;5.10;1.60;;;;;;;;;;5053087;28;20396;-67
2023/10/19 05:49:45;;;;;;;5.90;1.60;;;;;;;;;;5052066;28;20020;-67
2023/10/19 05:52:11;;;;;;;8.13;1.65;;;;;;;;;;5053023;28;20035;-67
2023/10/19 05:54:38;;;;;;;2.88;1.80;;;;;;;;;;5052923;28;20025;-67
2023/10/19 05:57:08;;;;;;;5.63;1.98;;;;;;;;;;5052235;28;20424;-67
2023/10/19 05:59:34;;;;;;;1.70;1.60;;;;;;;;;;5052573;28;20045;-67
2023/10/19 06:02:00;;;;;;;6.75;1.90;;;;;;;;;;5052639;28;20470;-67
2023/10/19 06:04:27;;;;;;;8.15;1.80;;;;;;;;;;5050822;28;20966;-67
2023/10/19 06:06:53;;;;;;;4.15;1.98;;;;;;;;;;5045686;28;20033;-66
2023/10/19 06:09:19;;;;;;;7.63;1.67;;;;;;;;;;5046815;28;20035;-66
2023/10/19 06:11:46;;;;;;;5.22;1.50;;;;;;;;;;5051513;28;20017;-67
2023/10/19 06:14:12;;;;;;;2.30;1.30;;;;;;;;;;5051839;28;20035;-66
2023/10/19 06:16:38;;;;;;;7.20;1.52;;;;;;;;;;5052694;28;20021;-65
2023/10/19 06:19:05;;;;;;;7.30;1.48;;;;;;;;;;5050844;28;20033;-65
2023/10/19 06:21:32;;;;;;;4.68;1.35;;;;;;;;;;5052090;28;20033;-66
2023/10/19 06:23:59;;;;;;;2.90;1.70;;;;;;;;;;5050719;28;20035;-66
2023/10/19 06:26:25;;;;;;;5.85;1.50;;;;;;;;;;5037335;28;20017;-66
2023/10/19 06:28:56;;;;;;;6.72;2.05;;;;;;;;;;5046552;28;20114;-66
2023/10/19 06:31:23;;;;;;;8.20;1.50;;;;;;;;;;5055467;28;20039;-67
2023/10/19 06:33:50;;;;;;;6.18;1.30;;;;;;;;;;5063384;28;20016;-65
2023/10/19 06:36:16;;;;;;;2.75;1.80;;;;;;;;;;5051585;28;20021;-67
2023/10/19 06:38:44;;;;;;;6.90;1.50;;;;;;;;;;5051237;28;20036;-67
2023/10/19 06:41:11;;;;;;;5.13;1.63;;;;;;;;;;5049277;28;20371;-67
2023/10/19 06:43:38;;;;;;;6.68;1.38;;;;;;;;;;5051418;28;20033;-67
2023/10/19 06:46:04;;;;;;;5.25;1.67;;;;;;;;;;5050983;28;20017;-67
2023/10/19 06:48:30;;;;;;;5.25;1.70;;;;;;;;;;5051726;28;20486;-67
2023/10/19 06:50:57;;;;;;;1.35;1.25;;;;;;;;;;5051600;28;20031;-67
2023/10/19 06:53:23;;;;;;;3.28;1.60;;;;;;;;;;5045959;28;20029;-67
2023/10/19 06:55:50;;;;;;;3.03;1.40;;;;;;;;;;5038501;28;20041;-66
2023/10/19 06:58:19;;;;;;;7.82;1.40;;;;;;;;;;5037174;28;20040;-67
2023/10/19 07:00:55;;;;;;;6.18;1.30;;;;;;;;;;5050768;28;20431;-66
2023/10/19 07:03:22;;;;;;;3.88;1.25;;;;;;;;;;5050569;28;20465;-67
2023/10/19 07:05:49;;;;;;;6.43;1.50;;;;;;;;;;5034586;28;20037;-67
2023/10/19 07:08:15;;;;;;;1.35;1.20;;;;;;;;;;5059287;28;20025;-65
2023/10/19 07:10:42;;;;;;;4.70;1.38;;;;;;;;;;5051205;28;20028;-64
2023/10/19 07:13:09;;;;;;;4.15;1.17;;;;;;;;;;5051243;28;20039;-65
2023/10/19 07:15:35;;;;;;;5.63;1.35;;;;;;;;;;5045502;28;20025;-65
2023/10/19 07:18:01;;;;;;;4.50;1.27;;;;;;;;;;5035060;28;20029;-67
2023/10/19 07:20:38;;;;;;;5.57;1.35;;;;;;;;;;5047690;28;20047;-66
2023/10/19 07:23:26;;;;;;;4.82;0.90;;;;;;;;;;5045146;28;20013;-66
2023/10/19 07:25:59;;;;;;;7.10;1.20;;;;;;;;;;5050875;28;20423;-65
2023/10/19 07:28:26;;;;;;;3.03;0.98;;;;;;;;;;5050910;28;20032;-66
2023/10/19 07:30:53;;;;;;;10.45;1.13;;;;;;;;;;5053448;28;20024;-67
2023/10/19 07:33:19;;;;;;;2.70;0.90;;;;;;;;;;5049051;28;20035;-66
2023/10/19 07:35:46;;;;;;;4.30;1.23;;;;;;;;;;5037465;28;20040;-67
2023/10/19 07:38:22;;;;;;;4.75;1.05;;;;;;;;;;5053942;28;20036;-67
2023/10/19 07:40:49;;;;;;;3.65;1.48;;;;;;;;;;5048713;28;20043;-66
2023/10/19 07:43:15;;;;;;;3.72;1.40;;;;;;;;;;5051734;28;20037;-67
2023/10/19 07:45:42;;;;;;;5.22;1.60;;;;;;;;;;5045210;28;20037;-67
2023/10/19 07:48:12;;;;;;;4.57;1.10;;;;;;;;;;5044876;28;20025;-67
2023/10/19 07:50:40;;;;;;;4.43;1.15;;;;;;;;;;5054199;28;20021;-67
2023/10/19 07:53:07;;;;;;;4.18;1.25;;;;;;;;;;5053607;28;20009;-67
2023/10/19 07:55:33;;;;;;;1.65;0.88;;;;;;;;;;5054311;28;20024;-67
2023/10/19 07:58:00;;;;;;;6.78;1.30;;;;;;;;;;5054105;28;20037;-67
2023/10/19 08:00:29;;;;;;;3.90;1.25;;;;;;;;;;5054024;28;20408;-67
2023/10/19 08:02:55;;;;;;;7.93;1.30;;;;;;;;;;5053932;28;20017;-66
2023/10/19 08:05:22;;;;;;;5.18;1.48;;;;;;;;;;5054053;28;20033;-67
2023/10/19 08:07:48;;;;;;;4.88;1.27;;;;;;;;;;5053703;28;20033;-67
2023/10/19 08:10:19;;;;;;;1.25;1.15;;;;;;;;;;5053714;28;20028;-67
2023/10/19 08:12:49;;;;;;;6.82;1.55;;;;;;;;;;5054295;28;20043;-67
2023/10/19 08:15:16;;;;;;;9.05;1.20;;;;;;;;;;5053613;28;20037;-67
2023/10/19 08:17:43;;;;;;;2.25;1.13;;;;;;;;;;5052625;28;20485;-67
2023/10/19 08:20:23;;;;;;;2.42;0.90;;;;;;;;;;5053742;28;20033;-67
2023/10/19 08:22:59;;;;;;;2.95;1.10;;;;;;;;;;5053520;28;20037;-67
2023/10/19 08:25:29;;;;;;;6.07;1.42;;;;;;;;;;5053287;28;20470;-67
2023/10/19 08:27:58;;;;;;;6.95;1.60;;;;;;;;;;5053715;28;20031;-67
2023/10/19 08:30:25;;;;;;;5.05;1.65;;;;;;;;;;5053591;28;20060;-67
2023/10/19 08:32:54;;;;;;;6.63;1.63;;;;;;;;;;5053507;28;20406;-67
2023/10/19 08:35:24;;;;;;;4.13;1.77;;;;;;;;;;5053448;28;20373;-67
2023/10/19 08:37:51;;;;;;;6.13;1.20;;;;;;;;;;5053386;28;20402;-67
2023/10/19 08:40:18;;;;;;;4.32;1.33;;;;;;;;;;5052854;28;20055;-67
2023/10/19 08:42:51;;;;;;;3.15;1.60;;;;;;;;;;5053164;28;20393;-67
2023/10/19 08:45:17;;;;;;;3.58;1.48;;;;;;;;;;5053228;28;20025;-67
2023/10/19 08:47:56;;;;;;;6.68;1.73;;;;;;;;;;5052949;28;20371;-67
2023/10/19 08:50:24;;;;;;;3.47;1.70;;;;;;;;;;5051807;28;20033;-67
2023/10/19 08:52:54;;;;;;;11.25;1.80;;;;;;;;;;5053118;28;20051;-68
2023/10/19 08:55:21;;;;;;;7.88;1.42;;;;;;;;;;5052828;28;20017;-67
2023/10/19 08:57:49;;;;;;;5.65;1.10;;;;;;;;;;5051686;28;20057;-67
2023/10/19 09:00:18;;;;;;;5.65;1.20;;;;;;;;;;5052635;28;20040;-67
2023/10/19 09:02:45;;;;;;;3.20;1.52;;;;;;;;;;5053162;28;20473;-67
2023/10/19 09:05:25;;;;;;;1.92;1.23;;;;;;;;;;5052181;28;20439;-67
2023/10/19 09:07:55;;;;;;;7.60;1.63;;;;;;;;;;5040162;28;20035;-67
2023/10/19 09:10:26;;;;;;;5.28;1.40;;;;;;;;;;5052401;28;20035;-66
2023/10/19 09:13:07;;;;;;;13.80;1.70;;;;;;;;;;5052663;28;20036;-67
2023/10/19 09:15:35;;;;;;;10.43;1.85;;;;;;;;;;5039450;28;20039;-67
2023/10/19 09:18:17;;;;;;;6.72;1.60;;;;;;;;;;5045854;28;20094;-67
2023/10/19 09:20:54;;;;;;;8.70;1.70;;;;;;;;;;5041193;28;20039;-67
2023/10/19 09:23:25;;;;;;;7.75;1.42;;;;;;;;;;5050120;28;20025;-67
2023/10/19 09:25:52;;;;;;;;;;;;;;;;;;5033168;28;20037;-67
2023/10/19 09:28:19;;;;;;;5.97;1.40;;;;;;;;;;5045645;28;19915;-67
2023/10/19 09:30:46;;;;;;;7.50;1.40;;;;;;;;;;5051821;28;20500;-67
2023/10/19 09:33:14;;;;;;;5.60;1.30;;;;;;;;;;5050403;28;20377;-67
2023/10/19 09:35:43;;;;;;;5.63;1.10;;;;;;;;;;5045577;28;20043;-67
2023/10/19 09:38:09;;;;;;;4.60;1.30;;;;;;;;;;5052315;28;20033;-67
2023/10/19 09:40:38;;;;;;;13.13;1.50;;;;;;;;;;5044030;28;20029;-67
2023/10/19 09:43:08;;;;;;;6.40;1.50;;;;;;;;;;5043982;28;20035;-67
2023/10/19 09:45:37;;;;;;;3.55;1.50;;;;;;;;;;5051307;28;20510;-67
2023/10/19 09:48:06;;;;;;;5.45;1.45;;;;;;;;;;5048648;28;20037;-67
2023/10/19 09:50:32;;;;;;;4.68;1.40;;;;;;;;;;5046958;28;20032;-67
2023/10/19 09:52:58;;;;;;;3.10;1.30;;;;;;;;;;5051415;28;20025;-66
2023/10/19 09:55:28;;;;;;;7.70;1.95;;;;;;;;;;5050858;28;20039;-67
2023/10/19 09:57:55;;;;;;;4.28;1.50;;;;;;;;;;5051751;28;20045;-67
2023/10/19 10:00:24;;;;;;;7.40;2.10;;;;;;;;;;5047607;28;20037;-67
2023/10/19 10:02:51;;;;;;;5.85;1.95;;;;;;;;;;5060692;28;20216;-67
2023/10/19 10:05:36;;;;;;;5.15;2.10;;;;;;;;;;5049529;28;20024;-67
2023/10/19 10:08:18;;;;;;;3.97;1.70;;;;;;;;;;5051528;28;20025;-67
2023/10/19 10:10:44;;;;;;;9.75;2.17;;;;;;;;;;5051816;28;20075;-67
2023/10/19 10:13:31;;;;;;;4.90;1.98;;;;;;;;;;5051432;28;20025;-68
2023/10/19 10:16:00;;;;;;;5.25;2.30;;;;;;;;;;5051494;28;20027;-67
2023/10/19 10:18:27;;;;;;;8.13;2.15;;;;;;;;;;5050048;28;20385;-67
2023/10/19 10:21:12;;;;;;;11.02;2.42;;;;;;;;;;5051476;28;20025;-66
2023/10/19 10:23:47;;;;;;;15.18;2.63;;;;;;;;;;5051571;28;20399;-67
2023/10/19 10:26:14;;;;;;;6.28;2.00;;;;;;;;;;5051549;28;20025;-67
2023/10/19 10:28:41;;;;;;;8.98;2.42;;;;;;;;;;5051590;28;20032;-67
2023/10/19 10:31:18;;;;;;;10.05;2.30;;;;;;;;;;5051486;28;20027;-67
2023/10/19 10:33:51;;;;;;;8.65;2.38;;;;;;;;;;5051193;28;20396;-67
2023/10/19 10:36:18;;;;;;;17.67;3.00;;;;;;;;;;5051345;28;20029;-67
2023/10/19 10:38:49;;;;;;;8.50;2.55;;;;;;;;;;5051562;28;20448;-67
2023/10/19 10:41:22;;;;;;;12.73;3.28;;;;;;;;;;5051593;28;20047;-68
2023/10/19 10:43:52;;;;;;;10.20;2.50;;;;;;;;;;5051322;28;20036;-67
2023/10/19 10:46:21;;;;;;;10.00;2.33;;;;;;;;;;5051319;28;20029;-67
2023/10/19 10:48:48;;;;;;;8.35;2.90;;;;;;;;;;5051388;28;20031;-67
2023/10/19 10:51:25;;;;;;;10.65;2.72;;;;;;;;;;5051728;28;20033;-67
2023/10/19 10:53:52;;;;;;;9.63;2.75;;;;;;;;;;5051532;28;20090;-68
2023/10/19 10:56:19;;;;;;;10.05;2.95;;;;;;;;;;5051525;28;20020;-67
2023/10/19 10:58:46;;;;;;;11.07;2.40;;;;;;;;;;5051350;28;20417;-67
2023/10/19 11:01:13;;;;;;;14.55;3.20;;;;;;;;;;5051025;28;20502;-67
2023/10/19 11:03:40;;;;;;;6.75;2.70;;;;;;;;;;5049972;28;20017;-67
2023/10/19 11:06:11;;;;;;;11.20;2.72;;;;;;;;;;5042467;28;20067;-68
2023/10/19 11:08:38;;;;;;;12.50;3.08;;;;;;;;;;5042093;28;20146;-67
2023/10/19 11:11:11;;;;;;;9.13;2.92;;;;;;;;;;5054780;28;20033;-68
2023/10/19 11:13:38;;;;;;;8.25;2.75;;;;;;;;;;5055075;28;20405;-67
2023/10/19 11:16:05;;;;;;;11.20;3.05;;;;;;;;;;5054844;28;20025;-67
2023/10/19 11:18:32;;;;;;;12.00;2.95;;;;;;;;;;5053664;28;20037;-67
2023/10/19 11:21:04;;;;;;;12.57;2.90;;;;;;;;;;5054870;28;20021;-67
2023/10/19 11:23:38;;;;;;;11.35;2.90;;;;;;;;;;5053216;28;20477;-67
2023/10/19 11:26:05;;;;;;;13.63;2.95;;;;;;;;;;5054618;28;20511;-66
2023/10/19 11:28:33;;;;;;;11.85;2.80;;;;;;;;;;5054381;28;20493;-67
2023/10/19 11:31:15;;;;;;;12.23;3.28;;;;;;;;;;5054404;28;20037;-67
2023/10/19 11:33:43;;;;;;;11.65;3.00;;;;;;;;;;5054432;28;20033;-67
2023/10/19 11:36:12;;;;;;;11.25;3.15;;;;;;;;;;5053638;28;20023;-67
2023/10/19 11:38:42;;;;;;;15.50;3.15;;;;;;;;;;5053349;28;20043;-66
2023/10/19 11:41:08;;;;;;;13.23;3.20;;;;;;;;;;5046003;28;20953;-67
2023/10/19 11:43:36;;;;;;;10.27;3.05;;;;;;;;;;5042493;28;20074;-67
2023/10/19 11:46:05;;;;;;;12.82;3.00;;;;;;;;;;5045933;28;20017;-67
2023/10/19 11:48:33;;;;;;;14.77;3.10;;;;;;;;;;5034773;28;20037;-67
2023/10/19 11:51:00;;;;;;;8.85;3.17;;;;;;;;;;5049618;28;20037;-65
2023/10/19 11:53:26;;;;;;;13.02;3.63;;;;;;;;;;5053992;28;20025;-66
2023/10/19 11:55:52;;;;;;;18.10;3.72;;;;;;;;;;5053935;28;20021;-66
2023/10/19 11:58:19;;;;;;;10.80;2.90;;;;;;;;;;5053798;28;20044;-68
2023/10/19 12:00:46;;;;;;;13.20;3.00;;;;;;;;;;5041260;28;20033;-67
2023/10/19 12:03:13;;;;;;;12.43;3.10;;;;;;;;;;5054434;28;20020;-67
2023/10/19 12:05:42;;;;;;;11.02;3.17;;;;;;;;;;5053097;28;20025;-67
2023/10/19 12:08:08;;;;;;;11.50;3.17;;;;;;;;;;5042248;28;20041;-67
2023/10/19 12:10:38;;;;;;;12.60;3.25;;;;;;;;;;5039200;28;20032;-68
2023/10/19 12:13:08;;;;;;;10.40;2.78;;;;;;;;;;5033759;28;20027;-66
2023/10/19 12:15:35;;;;;;;9.07;2.90;;;;;;;;;;5046169;28;20030;-67
2023/10/19 12:18:05;;;;;;;10.05;2.85;;;;;;;;;;5042657;28;20048;-67
2023/10/19 12:20:31;;;;;;;13.88;2.63;;;;;;;;;;5033246;28;20055;-67
2023/10/19 12:22:58;;;;;;;11.00;2.67;;;;;;;;;;5050989;28;20024;-67
2023/10/19 12:25:35;;;;;;;11.82;2.72;;;;;;;;;;5054249;28;20025;-67
2023/10/19 12:28:03;;;;;;;7.75;2.60;;;;;;;;;;5048682;28;20027;-68
2023/10/19 12:30:36;;;;;;;10.13;3.13;;;;;;;;;;5050345;28;20021;-68
2023/10/19 12:33:12;;;;;;;11.48;3.15;;;;;;;;;;5047718;28;20747;-68
2023/10/19 12:35:57;;;;;;;8.77;2.55;;;;;;;;;;5048900;28;20091;-66
2023/10/19 12:38:25;;;;;;;8.80;2.50;;;;;;;;;;5042221;28;20017;-68
2023/10/19 12:40:51;;;;;;;9.93;2.50;;;;;;;;;;5049652;28;20047;-69
2023/10/19 12:43:18;;;;;;;7.85;2.85;;;;;;;;;;5052316;28;20021;-68
2023/10/19 12:45:50;;;;;;;7.80;2.50;;;;;;;;;;5052027;28;20035;-68
2023/10/19 12:48:17;;;;;;;10.52;2.50;;;;;;;;;;5045934;28;20027;-68
2023/10/19 12:50:43;;;;;;;9.00;2.35;;;;;;;;;;5052919;28;20021;-68
2023/10/19 12:53:10;;;;;;;9.88;2.72;;;;;;;;;;5048457;28;20040;-65
2023/10/19 12:55:39;;;;;;;8.40;2.65;;;;;;;;;;5047554;28;20024;-68
2023/10/19 12:58:09;;;;;;;7.40;2.70;;;;;;;;;;5046215;28;20084;-67
2023/10/19 13:00:37;;;;;;;8.37;2.60;;;;;;;;;;5050056;28;20041;-68
2023/10/19 13:03:07;;;;;;;8.50;2.80;;;;;;;;;;5048706;28;20037;-67
2023/10/19 13:05:37;;;;;;;7.60;2.75;;;;;;;;;;5048764;28;20037;-67
2023/10/19 13:08:05;;;;;;;8.13;2.80;;;;;;;;;;5057573;28;20039;-67
2023/10/19 13:10:32;;;;;;;8.43;2.42;;;;;;;;;;5050898;28;20039;-67
2023/10/19 13:13:05;;;;;;;6.95;2.35;;;;;;;;;;5051630;28;20020;-68
2023/10/19 13:15:36;;;;;;;5.47;2.28;;;;;;;;;;5038547;28;20488;-67
2023/10/19 13:18:05;;;;;;;7.30;2.10;;;;;;;;;;5032491;28;20021;-67
2023/10/19 13:20:36;;;;;;;6.20;2.17;;;;;;;;;;5050965;28;20037;-67
2023/10/19 13:23:12;;;;;;;6.13;1.88;;;;;;;;;;5051024;28;20513;-68
2023/10/19 13:26:01;;;;;;;9.20;2.13;;;;;;;;;;5049696;28;20037;-67
2023/10/19 13:28:27;;;;;;;8.63;2.28;;;;;;;;;;5050532;28;20519;-68
2023/10/19 13:30:54;;;;;;;7.60;2.03;;;;;;;;;;5049781;28;20033;-68
2023/10/19 13:33:21;;;;;;;6.57;2.05;;;;;;;;;;5043838;28;20009;-68
2023/10/19 13:35:47;;;;;;;7.40;1.65;;;;;;;;;;5052027;28;20025;-67
2023/10/19 13:38:14;;;;;;;6.65;1.90;;;;;;;;;;5048888;28;20033;-68
2023/10/19 13:40:41;;;;;;;8.23;1.85;;;;;;;;;;5051058;28;20029;-68
2023/10/19 13:43:08;;;;;;;6.82;1.77;;;;;;;;;;5050901;28;20029;-68
2023/10/19 13:45:36;;;;;;;3.55;1.60;;;;;;;;;;5052067;28;20025;-68
2023/10/19 13:48:02;;;;;;;7.38;1.60;;;;;;;;;;5041618;28;20070;-67
2023/10/19 13:50:29;;;;;;;7.45;1.70;;;;;;;;;;5045422;28;20050;-67
2023/10/19 13:53:04;;;;;;;6.47;1.58;;;;;;;;;;5052106;28;20396;-67
2023/10/19 13:55:31;;;;;;;5.20;1.80;;;;;;;;;;5061804;28;20029;-67
2023/10/19 13:57:57;;;;;;;8.23;2.13;;;;;;;;;;5051615;28;20055;-67
2023/10/19 14:00:30;;;;;;;7.72;1.85;;;;;;;;;;5051592;28;20047;-68
2023/10/19 14:03:00;;;;;;;8.25;1.70;;;;;;;;;;5051141;28;20063;-68
2023/10/19 14:05:27;;;;;;;;;;;;;;;;;;5036490;28;20021;-65
2023/10/19 14:07:53;;;;;;;7.00;1.88;;;;;;;;;;5051193;28;19930;-68
2023/10/19 14:10:21;;;;;;;8.63;1.70;;;;;;;;;;5051319;28;20025;-65
2023/10/19 14:12:48;;;;;;;5.97;1.73;;;;;;;;;;5051894;28;20037;-66
2023/10/19 14:15:19;;;;;;;5.80;1.45;;;;;;;;;;5051308;28;20033;-66
2023/10/19 14:17:46;;;;;;;5.10;1.45;;;;;;;;;;5050292;28;20095;-67
2023/10/19 14:20:12;;;;;;;4.85;1.42;;;;;;;;;;5042055;28;20505;-69
2023/10/19 14:22:40;;;;;;;8.45;1.55;;;;;;;;;;5043952;28;20033;-67
2023/10/19 14:25:08;;;;;;;7.97;1.73;;;;;;;;;;5050871;28;20017;-66
2023/10/19 14:27:34;;;;;;;3.67;1.20;;;;;;;;;;5051524;28;20063;-66
2023/10/19 14:30:01;;;;;;;4.85;1.02;;;;;;;;;;5050435;28;20032;-68
2023/10/19 14:32:27;;;;;;;6.13;1.23;;;;;;;;;;5046936;28;20040;-67
2023/10/19 14:34:53;;;;;;;6.00;1.30;;;;;;;;;;5051403;28;20017;-67
2023/10/19 14:37:20;;;;;;;10.07;1.50;;;;;;;;;;5044718;28;20512;-67
2023/10/19 14:39:46;;;;;;;6.15;1.20;;;;;;;;;;5052350;28;20047;-67
2023/10/19 14:42:12;;;;;;;4.90;1.38;;;;;;;;;;5055564;28;20028;-67
2023/10/19 14:44:39;;;;;;;8.02;1.23;;;;;;;;;;5055164;28;20021;-67
2023/10/19 14:47:06;;;;;;;8.13;1.40;;;;;;;;;;5054259;28;20025;-67
2023/10/19 14:49:32;;;;;;;5.40;1.27;;;;;;;;;;5055199;28;20033;-67
2023/10/19 14:51:59;;;;;;;6.65;1.10;;;;;;;;;;5040299;28;20486;-68
2023/10/19 14:54:25;;;;;;;5.57;1.50;;;;;;;;;;5049957;28;20029;-67
2023/10/19 14:56:51;;;;;;;6.20;1.20;;;;;;;;;;5036725;28;20393;-67
2023/10/19 14:59:18;;;;;;;6.13;1.33;;;;;;;;;;5052735;28;20043;-67
2023/10/19 15:01:44;;;;;;;8.40;1.05;;;;;;;;;;5042937;28;20452;-67
2023/10/19 15:04:10;;;;;;;4.65;1.10;;;;;;;;;;5047280;28;20013;-67
2023/10/19 15:06:37;;;;;;;4.47;1.10;;;;;;;;;;5049433;28;20031;-67
2023/10/19 15:09:03;;;;;;;8.05;1.10;;;;;;;;;;5047935;28;20044;-67
2023/10/19 15:11:29;;;;;;;5.05;1.20;;;;;;;;;;5053730;28;20033;-67
2023/10/19 15:13:58;;;;;;;7.00;1.27;;;;;;;;;;5054730;28;20029;-67
2023/10/19 15:16:24;;;;;;;3.90;0.93;;;;;;;;;;5054620;28;20029;-67
2023/10/19 15:18:50;;;;;;;7.43;1.50;;;;;;;;;;5054115;28;20439;-67
2023/10/19 15:21:17;;;;;;;7.78;1.30;;;;;;;;;;5048871;28;20039;-67
2023/10/19 15:23:43;;;;;;;6.72;1.27;;;;;;;;;;5034934;28;20031;-68
2023/10/19 15:26:09;;;;;;;4.25;1.20;;;;;;;;;;5033683;28;20037;-67
2023/10/19 15:28:36;;;;;;;4.85;1.27;;;;;;;;;;5045073;28;20029;-67